createdAt,value
2019-01-29T00:00:44.078Z,9.95
2019-01-29T00:03:13.309Z,9.35
2019-01-29T00:05:42.515Z,8.38
2019-01-29T00:08:11.714Z,9.38
2019-01-29T00:10:40.956Z,7.58
2019-01-29T00:13:10.182Z,7.65
2019-01-29T00:15:39.378Z,8.00
2019-01-29T00:18:08.580Z,8.08
2019-01-29T00:20:37.820Z,7.58
2019-01-29T00:23:07.007Z,8.08
2019-01-29T00:25:36.238Z,8.60
2019-01-29T00:28:05.484Z,8.00
2019-01-29T00:30:34.706Z,7.97
2019-01-29T00:33:04.238Z,8.25
2019-01-29T00:35:33.475Z,7.40
2019-01-29T00:38:02.676Z,7.37
2019-01-29T00:40:31.920Z,7.95
2019-01-29T00:43:01.101Z,8.17
2019-01-29T00:45:30.335Z,7.92
2019-01-29T00:47:59.532Z,8.03
2019-01-29T00:50:28.763Z,7.03
2019-01-29T00:52:57.995Z,7.45
2019-01-29T00:55:27.238Z,7.62
2019-01-29T00:57:56.461Z,7.83
2019-01-29T01:00:25.653Z,8.03
2019-01-29T01:02:54.889Z,7.45
2019-01-29T01:05:24.136Z,8.18
2019-01-29T01:07:53.370Z,7.72
2019-01-29T01:10:22.545Z,8.13
2019-01-29T01:12:51.741Z,8.10
2019-01-29T01:15:20.978Z,7.97
2019-01-29T01:17:50.218Z,8.08
2019-01-29T01:20:19.407Z,8.15
2019-01-29T01:22:51.011Z,8.63
2019-01-29T01:25:19.584Z,8.63
2019-01-29T01:27:48.810Z,7.90
2019-01-29T01:30:19.043Z,8.65
2019-01-29T01:32:48.267Z,8.18
2019-01-29T01:35:17.575Z,9.10
2019-01-29T01:37:46.770Z,8.70
2019-01-29T01:40:21.151Z,9.77
2019-01-29T01:42:50.378Z,10.32
2019-01-29T01:45:19.574Z,9.80
2019-01-29T01:47:48.808Z,10.13
2019-01-29T01:50:18.003Z,9.70
2019-01-29T01:52:47.237Z,11.00
2019-01-29T01:55:17.674Z,11.10
2019-01-29T01:57:46.906Z,11.90
2019-01-29T02:00:17.972Z,12.37
2019-01-29T02:02:47.216Z,11.97
2019-01-29T02:05:16.434Z,13.80
2019-01-29T02:07:45.667Z,12.28
2019-01-29T02:10:18.159Z,12.82
2019-01-29T02:12:47.355Z,12.80
2019-01-29T02:15:16.574Z,12.47
2019-01-29T02:17:45.788Z,11.68
2019-01-29T02:20:16.265Z,12.63
2019-01-29T02:22:45.459Z,12.00
2019-01-29T02:25:14.711Z,11.90
2019-01-29T02:27:43.940Z,11.48
2019-01-29T02:30:15.773Z,12.13
2019-01-29T02:32:45.000Z,12.20
2019-01-29T02:35:14.232Z,12.73
2019-01-29T02:37:43.428Z,12.15
2019-01-29T02:40:26.485Z,11.85
2019-01-29T02:42:55.678Z,12.85
2019-01-29T02:45:24.903Z,12.33
2019-01-29T02:47:54.103Z,13.10
2019-01-29T02:50:23.346Z,12.05
2019-01-29T02:52:52.548Z,12.05
2019-01-29T02:55:21.769Z,12.15
2019-01-29T02:57:50.958Z,13.38
2019-01-29T03:00:22.543Z,13.08
2019-01-29T03:02:51.882Z,14.05
2019-01-29T03:05:21.089Z,14.15
2019-01-29T03:07:50.442Z,14.35
2019-01-29T03:10:22.494Z,14.93
2019-01-29T03:12:51.683Z,16.27
2019-01-29T03:15:26.501Z,17.10
2019-01-29T03:17:55.700Z,18.32
2019-01-29T03:20:24.941Z,17.57
2019-01-29T03:22:54.155Z,19.75
2019-01-29T03:25:23.393Z,18.57
2019-01-29T03:27:52.623Z,18.00
2019-01-29T03:30:22.959Z,18.00
2019-01-29T03:32:52.184Z,19.45
2019-01-29T03:35:21.523Z,19.02
2019-01-29T03:37:50.713Z,17.52
2019-01-29T03:40:24.806Z,18.90
2019-01-29T03:42:54.469Z,14.87
2019-01-29T03:45:23.697Z,17.32
2019-01-29T03:47:52.896Z,17.45
2019-01-29T03:50:22.779Z,16.52
2019-01-29T03:52:51.971Z,18.82
2019-01-29T03:55:21.206Z,17.77
2019-01-29T03:57:50.417Z,17.48
2019-01-29T04:00:25.352Z,16.67
2019-01-29T04:02:54.671Z,18.10
2019-01-29T04:05:23.911Z,18.30
2019-01-29T04:07:53.104Z,19.37
2019-01-29T04:10:22.333Z,18.23
2019-01-29T04:12:51.527Z,17.95
2019-01-29T04:15:22.810Z,16.75
2019-01-29T04:17:56.786Z,19.10
2019-01-29T04:20:26.205Z,19.23
2019-01-29T04:22:55.390Z,18.20
2019-01-29T04:25:24.579Z,17.98
2019-01-29T04:27:54.879Z,20.08
2019-01-29T04:30:24.200Z,18.27
2019-01-29T04:32:53.444Z,17.87
2019-01-29T04:35:22.674Z,18.05
2019-01-29T04:37:51.900Z,18.60
2019-01-29T04:40:21.140Z,16.87
2019-01-29T04:42:50.437Z,16.77
2019-01-29T04:45:19.635Z,15.48
2019-01-29T04:47:48.865Z,16.62
2019-01-29T04:50:20.025Z,17.02
2019-01-29T04:52:50.127Z,17.40
2019-01-29T04:55:20.621Z,16.10
2019-01-29T04:57:49.826Z,15.72
2019-01-29T05:00:21.587Z,16.47
2019-01-29T05:02:50.790Z,14.75
2019-01-29T05:05:20.555Z,16.05
2019-01-29T05:07:49.967Z,15.10
2019-01-29T05:10:21.195Z,15.40
2019-01-29T05:12:50.399Z,16.73
2019-01-29T05:15:20.384Z,15.65
2019-01-29T05:17:49.579Z,15.90
2019-01-29T05:20:20.553Z,16.20
2019-01-29T05:22:49.753Z,16.05
2019-01-29T05:25:18.960Z,16.02
2019-01-29T05:27:48.281Z,15.18
2019-01-29T05:30:23.094Z,15.60
2019-01-29T05:32:52.277Z,14.50
2019-01-29T05:35:21.507Z,15.00
2019-01-29T05:37:50.708Z,15.75
2019-01-29T05:40:23.490Z,14.87
2019-01-29T05:42:52.722Z,15.40
2019-01-29T05:45:22.787Z,16.00
2019-01-29T05:47:51.978Z,16.05
2019-01-29T05:50:21.342Z,16.73
2019-01-29T05:52:51.607Z,16.77
2019-01-29T05:55:20.834Z,16.17
2019-01-29T05:57:50.034Z,17.12
2019-01-29T06:00:27.000Z,18.12
2019-01-29T06:02:56.261Z,16.82
2019-01-29T06:05:25.535Z,17.23
2019-01-29T06:07:54.793Z,17.20
2019-01-29T06:10:24.144Z,18.70
2019-01-29T06:12:53.381Z,18.77
2019-01-29T06:15:24.782Z,18.62
2019-01-29T06:17:54.008Z,18.33
2019-01-29T06:20:26.007Z,18.10
2019-01-29T06:22:55.243Z,19.23
2019-01-29T06:25:24.508Z,18.62
2019-01-29T06:27:53.808Z,18.85
2019-01-29T06:30:24.739Z,19.92
2019-01-29T06:32:53.983Z,19.98
2019-01-29T06:35:23.172Z,21.65
2019-01-29T06:37:52.675Z,22.40
2019-01-29T06:40:24.023Z,21.82
2019-01-29T06:42:53.382Z,23.35
2019-01-29T06:45:24.021Z,22.52
2019-01-29T06:47:53.531Z,23.18
2019-01-29T06:50:26.825Z,22.73
2019-01-29T06:52:56.256Z,22.98
2019-01-29T06:55:25.969Z,22.17
2019-01-29T06:57:56.128Z,21.27
2019-01-29T07:00:31.014Z,22.48
2019-01-29T07:03:00.888Z,20.02
2019-01-29T07:05:30.098Z,20.12
2019-01-29T07:08:00.328Z,19.67
2019-01-29T07:10:29.522Z,18.20
2019-01-29T07:12:58.716Z,18.73
2019-01-29T07:15:47.281Z,18.62
2019-01-29T07:18:34.382Z,18.17
2019-01-29T07:21:05.851Z,18.95
2019-01-29T07:23:35.073Z,18.48
2019-01-29T07:26:04.443Z,18.27
2019-01-29T07:28:35.273Z,17.50
2019-01-29T07:31:04.485Z,17.80
2019-01-29T07:33:33.708Z,16.95
2019-01-29T07:36:02.903Z,16.90
2019-01-29T07:38:32.131Z,18.17
2019-01-29T07:41:01.348Z,16.32
2019-01-29T07:43:31.627Z,16.05
2019-01-29T07:46:00.900Z,14.90
2019-01-29T07:48:30.101Z,14.55
2019-01-29T07:50:59.432Z,16.80
2019-01-29T07:53:28.642Z,15.98
2019-01-29T07:55:57.882Z,14.65
2019-01-29T07:58:27.071Z,14.77
2019-01-29T08:00:56.561Z,14.30
2019-01-29T08:03:25.791Z,14.10
2019-01-29T08:05:54.979Z,14.45
2019-01-29T08:08:24.209Z,12.93
2019-01-29T08:10:53.768Z,14.10
2019-01-29T08:13:22.990Z,13.95
2019-01-29T08:15:52.183Z,13.45
2019-01-29T08:18:21.445Z,11.63
2019-01-29T08:20:50.763Z,12.40
2019-01-29T08:23:20.057Z,11.68
2019-01-29T08:25:49.389Z,11.15
2019-01-29T08:28:18.516Z,12.05
2019-01-29T08:30:47.893Z,11.15
2019-01-29T08:33:17.395Z,10.78
2019-01-29T08:35:46.609Z,10.48
2019-01-29T08:38:15.789Z,9.83
2019-01-29T08:40:45.025Z,9.50
2019-01-29T08:43:14.214Z,10.03
2019-01-29T08:45:43.448Z,10.10
2019-01-29T08:48:12.668Z,9.03
2019-01-29T08:50:42.929Z,9.15
2019-01-29T08:53:12.194Z,8.97
2019-01-29T08:55:41.388Z,8.90
2019-01-29T08:58:11.551Z,9.80
2019-01-29T09:00:40.859Z,9.70
2019-01-29T09:03:10.038Z,9.03
2019-01-29T09:05:39.285Z,9.13
2019-01-29T09:08:08.471Z,9.73
2019-01-29T09:10:37.670Z,8.73
2019-01-29T09:13:06.930Z,9.75
2019-01-29T09:15:36.113Z,9.33
2019-01-29T09:18:06.177Z,7.97
2019-01-29T09:20:35.369Z,8.55
2019-01-29T09:23:04.561Z,8.50
2019-01-29T09:25:33.821Z,8.25
2019-01-29T09:28:04.066Z,8.43
2019-01-29T09:30:34.358Z,8.28
2019-01-29T09:33:04.120Z,7.42
2019-01-29T09:35:33.309Z,7.62
2019-01-29T09:38:02.577Z,7.37
2019-01-29T09:40:31.786Z,7.20
2019-01-29T09:43:01.058Z,7.90
2019-01-29T09:45:30.259Z,6.67
2019-01-29T09:47:59.493Z,7.10
2019-01-29T09:50:28.690Z,6.70
2019-01-29T09:52:57.887Z,6.30
2019-01-29T09:55:29.553Z,5.77
2019-01-29T09:57:58.004Z,6.12
2019-01-29T10:00:38.440Z,5.70
2019-01-29T10:03:07.729Z,7.37
2019-01-29T10:05:36.927Z,6.10
2019-01-29T10:08:06.148Z,6.00
2019-01-29T10:10:35.340Z,5.90
2019-01-29T10:13:04.641Z,6.53
2019-01-29T10:15:35.680Z,7.17
2019-01-29T10:18:05.369Z,6.80
2019-01-29T10:20:34.605Z,6.70
2019-01-29T10:23:04.175Z,5.92
2019-01-29T10:25:37.786Z,6.30
2019-01-29T10:28:04.298Z,5.85
2019-01-29T10:30:33.538Z,6.08
2019-01-29T10:33:02.735Z,7.00
2019-01-29T10:35:31.953Z,7.05
2019-01-29T10:38:01.137Z,6.60
2019-01-29T10:40:30.361Z,8.10
2019-01-29T10:42:59.561Z,5.95
2019-01-29T10:45:30.048Z,6.50
2019-01-29T10:47:59.281Z,7.70
2019-01-29T10:50:30.311Z,6.20
2019-01-29T10:52:59.806Z,6.65
2019-01-29T10:55:29.028Z,8.48
2019-01-29T10:57:58.293Z,8.13
2019-01-29T11:00:30.539Z,7.22
2019-01-29T11:02:59.718Z,7.12
2019-01-29T11:05:28.907Z,7.58
2019-01-29T11:07:58.321Z,6.95
2019-01-29T11:10:27.859Z,8.78
2019-01-29T11:12:57.058Z,7.67
2019-01-29T11:15:32.272Z,8.88
2019-01-29T11:18:01.474Z,8.43
2019-01-29T11:20:30.689Z,8.25
2019-01-29T11:23:00.956Z,8.48
2019-01-29T11:25:30.758Z,7.85
2019-01-29T11:27:59.957Z,8.33
2019-01-29T11:30:31.720Z,8.13
2019-01-29T11:33:00.912Z,8.05
2019-01-29T11:35:30.148Z,8.20
2019-01-29T11:37:59.384Z,8.20
2019-01-29T11:40:30.317Z,8.33
2019-01-29T11:42:59.550Z,8.08
2019-01-29T11:45:40.933Z,9.15
2019-01-29T11:48:10.119Z,8.00
2019-01-29T11:50:39.358Z,8.33
2019-01-29T11:53:08.560Z,7.90
2019-01-29T11:55:37.789Z,7.53
2019-01-29T11:58:07.336Z,7.20
2019-01-29T12:00:38.956Z,7.97
2019-01-29T12:03:08.127Z,7.35
2019-01-29T12:05:37.366Z,6.45
2019-01-29T12:08:06.838Z,8.15
2019-01-29T12:10:36.165Z,7.20
2019-01-29T12:13:05.515Z,6.50
2019-01-29T12:15:34.750Z,5.72
2019-01-29T12:18:04.646Z,6.37
2019-01-29T12:20:33.873Z,6.40
2019-01-29T12:23:04.097Z,5.90
2019-01-29T12:25:33.321Z,5.78
2019-01-29T12:28:02.561Z,7.42
2019-01-29T12:30:31.752Z,6.10
2019-01-29T12:33:02.506Z,6.80
2019-01-29T12:35:31.739Z,7.87
2019-01-29T12:38:00.978Z,7.83
2019-01-29T12:40:30.209Z,8.48
2019-01-29T12:42:59.452Z,8.43
2019-01-29T12:45:28.641Z,8.80
2019-01-29T12:47:57.872Z,10.15
2019-01-29T12:50:28.647Z,11.27
2019-01-29T12:53:03.790Z,11.43
2019-01-29T12:55:33.191Z,12.55
2019-01-29T12:58:02.390Z,12.45
2019-01-29T13:00:33.310Z,13.35
2019-01-29T13:03:02.516Z,14.15
2019-01-29T13:05:32.809Z,13.95
2019-01-29T13:08:02.141Z,14.70
2019-01-29T13:10:31.455Z,16.17
2019-01-29T13:13:00.684Z,15.55
2019-01-29T13:15:31.743Z,16.52
2019-01-29T13:18:01.571Z,15.95
2019-01-29T13:20:31.041Z,16.05
2019-01-29T13:23:00.220Z,16.40
2019-01-29T13:25:29.455Z,15.00
2019-01-29T13:27:58.654Z,16.62
2019-01-29T13:30:33.056Z,16.70
2019-01-29T13:33:02.332Z,16.10
2019-01-29T13:35:33.404Z,17.85
2019-01-29T13:38:02.609Z,16.80
2019-01-29T13:40:31.848Z,16.48
2019-01-29T13:43:01.038Z,16.30
2019-01-29T13:45:30.268Z,15.98
2019-01-29T13:47:59.507Z,16.75
2019-01-29T13:50:31.842Z,17.92
2019-01-29T13:53:01.036Z,17.25
2019-01-29T13:55:30.236Z,17.40
2019-01-29T13:57:59.852Z,17.70
2019-01-29T14:00:33.703Z,16.67
2019-01-29T14:03:03.225Z,15.72
2019-01-29T14:05:32.462Z,15.55
2019-01-29T14:08:01.735Z,15.48
2019-01-29T14:10:30.898Z,16.02
2019-01-29T14:13:00.099Z,16.07
2019-01-29T14:15:33.908Z,16.15
2019-01-29T14:18:04.173Z,15.90
2019-01-29T14:20:33.531Z,14.87
2019-01-29T14:23:02.776Z,15.72
2019-01-29T14:25:31.969Z,15.60
2019-01-29T14:28:01.311Z,15.10
2019-01-29T14:30:31.401Z,15.28
2019-01-29T14:33:00.630Z,15.68
2019-01-29T14:35:29.866Z,14.40
2019-01-29T14:38:02.337Z,14.83
2019-01-29T14:40:33.719Z,14.95
2019-01-29T14:43:02.918Z,15.68
2019-01-29T14:45:33.205Z,14.93
2019-01-29T14:48:02.403Z,15.05
2019-01-29T14:50:31.683Z,16.97
2019-01-29T14:53:01.008Z,14.50
2019-01-29T14:55:30.324Z,13.95
2019-01-29T14:57:59.558Z,14.85
2019-01-29T15:00:37.526Z,14.10
2019-01-29T15:03:06.998Z,14.28
2019-01-29T15:05:36.176Z,15.55
2019-01-29T15:08:05.507Z,14.85
2019-01-29T15:10:34.890Z,14.63
2019-01-29T15:13:04.232Z,13.90
2019-01-29T15:15:51.330Z,12.37
2019-01-29T15:18:25.317Z,12.73
2019-01-29T15:20:54.510Z,12.30
2019-01-29T15:23:23.866Z,11.33
2019-01-29T15:25:53.036Z,10.75
2019-01-29T15:28:22.274Z,10.80
2019-01-29T15:30:51.487Z,10.93
2019-01-29T15:33:20.729Z,18.30
2019-01-29T15:35:49.926Z,10.70
2019-01-29T15:38:19.164Z,9.80
2019-01-29T15:40:48.627Z,10.78
2019-01-29T15:43:17.871Z,10.60
2019-01-29T15:45:47.058Z,10.13
2019-01-29T15:48:16.410Z,11.07
2019-01-29T15:50:46.341Z,13.50
2019-01-29T15:53:15.575Z,10.08
2019-01-29T15:55:44.767Z,9.43
2019-01-29T15:58:14.019Z,10.25
2019-01-29T16:00:43.212Z,9.53
2019-01-29T16:03:12.438Z,9.60
2019-01-29T16:05:42.191Z,9.78
2019-01-29T16:08:14.421Z,9.90
2019-01-29T16:10:44.954Z,9.85
2019-01-29T16:13:14.194Z,10.37
2019-01-29T16:15:43.458Z,11.48
2019-01-29T16:18:13.932Z,10.77
2019-01-29T16:20:43.120Z,10.80
2019-01-29T16:23:12.402Z,10.90
2019-01-29T16:25:41.601Z,10.45
2019-01-29T16:28:10.836Z,10.95
2019-01-29T16:30:40.091Z,11.53
2019-01-29T16:33:09.288Z,10.70
2019-01-29T16:35:40.260Z,10.43
2019-01-29T16:38:09.670Z,10.63
2019-01-29T16:40:41.172Z,9.70
2019-01-29T16:43:10.409Z,9.88
2019-01-29T16:45:39.587Z,9.90
2019-01-29T16:48:10.359Z,9.50
2019-01-29T16:50:39.662Z,9.38
2019-01-29T16:53:09.805Z,8.96
2019-01-29T16:55:38.995Z,8.70
2019-01-29T16:58:08.241Z,9.76
2019-01-29T17:00:42.196Z,9.38
2019-01-29T17:03:11.434Z,9.70
2019-01-29T17:05:40.628Z,9.53
2019-01-29T17:08:11.764Z,8.88
2019-01-29T17:10:40.751Z,9.20
2019-01-29T17:13:09.978Z,8.98
2019-01-29T17:15:39.533Z,9.38
2019-01-29T17:18:10.901Z,8.64
2019-01-29T17:20:42.386Z,9.20
2019-01-29T17:23:11.723Z,10.95
2019-01-29T17:25:40.905Z,9.28
2019-01-29T17:28:10.271Z,10.17
2019-01-29T17:30:46.346Z,9.03
2019-01-29T17:33:17.713Z,10.25
2019-01-29T17:35:47.178Z,9.68
2019-01-29T17:38:16.451Z,9.93
2019-01-29T17:40:46.329Z,9.93
2019-01-29T17:43:15.591Z,9.78
2019-01-29T17:45:47.524Z,9.70
2019-01-29T17:48:16.704Z,9.93
2019-01-29T17:50:46.164Z,9.93
2019-01-29T17:53:15.402Z,10.03
2019-01-29T17:55:45.832Z,9.63
2019-01-29T17:58:16.859Z,9.20
2019-01-29T18:00:53.501Z,9.57
2019-01-29T18:03:22.752Z,9.60
2019-01-29T18:05:51.962Z,9.00
2019-01-29T18:08:21.192Z,9.43
2019-01-29T18:10:50.401Z,9.50
2019-01-29T18:13:19.655Z,9.17
2019-01-29T18:15:48.852Z,8.93
2019-01-29T18:18:18.101Z,8.87
2019-01-29T18:20:47.289Z,9.70
2019-01-29T18:23:17.064Z,9.53
2019-01-29T18:25:46.299Z,11.70
2019-01-29T18:28:15.850Z,8.75
2019-01-29T18:30:45.045Z,9.63
2019-01-29T18:33:14.321Z,9.28
2019-01-29T18:35:43.705Z,9.78
2019-01-29T18:38:12.941Z,9.23
2019-01-29T18:40:46.608Z,8.65
2019-01-29T18:43:15.806Z,8.18
2019-01-29T18:45:45.066Z,7.83
2019-01-29T18:48:14.345Z,8.43
2019-01-29T18:50:43.520Z,8.30
2019-01-29T18:53:12.760Z,8.38
2019-01-29T18:55:42.022Z,9.43
2019-01-29T18:58:12.686Z,9.25
2019-01-29T19:00:42.262Z,8.45
2019-01-29T19:03:13.069Z,7.83
2019-01-29T19:05:43.227Z,7.37
2019-01-29T19:08:12.481Z,8.67
2019-01-29T19:10:41.678Z,9.53
2019-01-29T19:13:10.886Z,9.35
2019-01-29T19:15:40.123Z,9.25
2019-01-29T19:18:10.083Z,9.55
2019-01-29T19:20:39.597Z,10.30
2019-01-29T19:23:08.926Z,10.40
2019-01-29T19:25:38.163Z,9.85
2019-01-29T19:28:07.490Z,10.95
2019-01-29T19:30:36.872Z,11.60
2019-01-29T19:33:06.050Z,11.35
2019-01-29T19:35:35.225Z,11.45
2019-01-29T19:38:04.497Z,10.72
2019-01-29T19:40:33.803Z,11.90
2019-01-29T19:43:03.020Z,12.03
2019-01-29T19:45:34.385Z,11.43
2019-01-29T19:48:05.485Z,12.82
2019-01-29T19:50:34.892Z,12.43
2019-01-29T19:53:04.613Z,11.68
2019-01-29T19:55:34.104Z,11.95
2019-01-29T19:58:09.129Z,12.20
2019-01-29T20:00:37.681Z,11.83
2019-01-29T20:03:06.890Z,12.33
2019-01-29T20:05:36.140Z,12.58
2019-01-29T20:08:05.768Z,19.00
2019-01-29T20:10:35.004Z,13.70
2019-01-29T20:13:05.358Z,12.95
2019-01-29T20:15:34.719Z,15.70
2019-01-29T20:18:04.222Z,15.20
2019-01-29T20:20:41.033Z,14.55
2019-01-29T20:23:10.295Z,13.50
2019-01-29T20:25:39.490Z,14.68
2019-01-29T20:28:08.736Z,14.43
2019-01-29T20:30:39.712Z,15.18
2019-01-29T20:33:08.964Z,13.15
2019-01-29T20:35:38.193Z,13.73
2019-01-29T20:38:07.708Z,13.30
2019-01-29T20:40:36.956Z,13.45
2019-01-29T20:43:06.158Z,12.70
2019-01-29T20:45:35.428Z,13.05
2019-01-29T20:48:04.712Z,12.45
2019-01-29T20:50:35.979Z,12.43
2019-01-29T20:53:05.171Z,12.30
2019-01-29T20:55:34.411Z,12.47
2019-01-29T20:58:04.538Z,12.37
2019-01-29T21:00:36.282Z,12.03
2019-01-29T21:03:05.590Z,11.85
2019-01-29T21:05:34.804Z,12.47
2019-01-29T21:08:04.365Z,11.57
2019-01-29T21:10:33.672Z,13.13
2019-01-29T21:13:03.978Z,14.50
2019-01-29T21:15:38.543Z,14.43
2019-01-29T21:18:04.588Z,12.35
2019-01-29T21:20:33.756Z,12.68
2019-01-29T21:23:03.276Z,13.43
2019-01-29T21:25:32.479Z,13.55
2019-01-29T21:28:01.719Z,13.28
2019-01-29T21:30:39.427Z,13.62
2019-01-29T21:33:08.953Z,13.12
2019-01-29T21:35:38.187Z,12.65
2019-01-29T21:38:07.454Z,13.48
2019-01-29T21:40:36.653Z,13.08
2019-01-29T21:43:05.900Z,13.58
2019-01-29T21:45:35.617Z,12.82
2019-01-29T21:48:05.173Z,13.10
2019-01-29T21:50:35.464Z,13.30
2019-01-29T21:53:05.066Z,13.60
2019-01-29T21:55:34.298Z,13.05
2019-01-29T21:58:04.617Z,13.48
2019-01-29T22:00:38.802Z,12.93
2019-01-29T22:03:08.370Z,13.22
2019-01-29T22:05:37.614Z,13.22
2019-01-29T22:08:07.350Z,15.40
2019-01-29T22:10:37.567Z,12.98
2019-01-29T22:13:07.765Z,13.80
2019-01-29T22:15:37.007Z,12.60
2019-01-29T22:18:06.439Z,12.77
2019-01-29T22:20:35.709Z,13.93
2019-01-29T22:23:04.948Z,13.20
2019-01-29T22:25:35.779Z,12.95
2019-01-29T22:28:05.915Z,13.72
2019-01-29T22:30:40.031Z,12.82
2019-01-29T22:33:09.258Z,14.30
2019-01-29T22:35:38.475Z,13.75
2019-01-29T22:38:07.712Z,13.75
2019-01-29T22:40:36.961Z,13.48
2019-01-29T22:43:06.156Z,13.62
2019-01-29T22:45:35.379Z,13.75
2019-01-29T22:48:05.290Z,13.78
2019-01-29T22:50:36.930Z,13.83
2019-01-29T22:53:06.162Z,13.77
2019-01-29T22:55:35.362Z,14.45
2019-01-29T22:58:05.233Z,14.33
2019-01-29T23:01:00.008Z,13.30
2019-01-29T23:03:38.058Z,13.78
2019-01-29T23:06:16.215Z,14.68
2019-01-29T23:08:45.469Z,14.00
2019-01-29T23:11:14.662Z,13.93
2019-01-29T23:13:43.959Z,13.72
2019-01-29T23:16:13.201Z,14.30
2019-01-29T23:18:42.401Z,14.47
2019-01-29T23:21:11.642Z,15.07
2019-01-29T23:23:40.844Z,14.75
2019-01-29T23:26:10.076Z,16.07
2019-01-29T23:28:39.395Z,14.98
2019-01-29T23:31:08.600Z,15.62
2019-01-29T23:33:37.831Z,15.23
2019-01-29T23:36:07.024Z,14.10
2019-01-29T23:38:36.270Z,14.85
2019-01-29T23:41:05.451Z,15.13
2019-01-29T23:43:34.687Z,15.28
2019-01-29T23:46:04.427Z,14.62
2019-01-29T23:48:33.788Z,14.65
2019-01-29T23:51:03.031Z,14.40
2019-01-29T23:53:32.272Z,14.53
2019-01-29T23:56:01.491Z,13.95
2019-01-29T23:58:30.724Z,14.53
